sensor_id;sensor_type;location;lat;lon;timestamp;temperature;humidity
11426;DHT22;5769;47.998;7.788;2024-01-16T00:00:18;20.20;74.50
11426;DHT22;5769;47.998;7.788;2024-01-16T00:02:45;20.30;74.60
11426;DHT22;5769;47.998;7.788;2024-01-16T00:05:14;20.20;74.70
11426;DHT22;5769;47.998;7.788;2024-01-16T00:07:41;20.20;74.60
11426;DHT22;5769;47.998;7.788;2024-01-16T00:10:08;20.30;74.80
11426;DHT22;5769;47.998;7.788;2024-01-16T00:12:36;20.30;74.70
11426;DHT22;5769;47.998;7.788;2024-01-16T00:15:06;20.20;74.70
11426;DHT22;5769;47.998;7.788;2024-01-16T00:17:34;20.30;74.90
11426;DHT22;5769;47.998;7.788;2024-01-16T00:20:01;20.20;74.80
11426;DHT22;5769;47.998;7.788;2024-01-16T00:22:30;20.30;74.90
11426;DHT22;5769;47.998;7.788;2024-01-16T00:24:57;20.20;75.10
11426;DHT22;5769;47.998;7.788;2024-01-16T00:27:25;20.20;75.20
11426;DHT22;5769;47.998;7.788;2024-01-16T00:29:52;20.30;75.30
11426;DHT22;5769;47.998;7.788;2024-01-16T00:32:20;20.30;75.20
11426;DHT22;5769;47.998;7.788;2024-01-16T00:34:47;20.30;75.00
11426;DHT22;5769;47.998;7.788;2024-01-16T00:37:14;20.30;74.90
11426;DHT22;5769;47.998;7.788;2024-01-16T00:39:41;20.20;74.60
11426;DHT22;5769;47.998;7.788;2024-01-16T00:42:07;20.30;74.50
11426;DHT22;5769;47.998;7.788;2024-01-16T00:44:36;20.30;74.50
11426;DHT22;5769;47.998;7.788;2024-01-16T00:47:03;20.30;74.50
11426;DHT22;5769;47.998;7.788;2024-01-16T00:49:32;20.30;74.40
11426;DHT22;5769;47.998;7.788;2024-01-16T00:51:59;20.20;74.30
11426;DHT22;5769;47.998;7.788;2024-01-16T00:54:26;20.30;74.20
11426;DHT22;5769;47.998;7.788;2024-01-16T00:56:52;20.30;74.10
11426;DHT22;5769;47.998;7.788;2024-01-16T00:59:24;20.20;73.80
11426;DHT22;5769;47.998;7.788;2024-01-16T01:01:51;20.30;74.00
11426;DHT22;5769;47.998;7.788;2024-01-16T01:04:18;20.30;74.00
11426;DHT22;5769;47.998;7.788;2024-01-16T01:06:46;20.30;73.50
11426;DHT22;5769;47.998;7.788;2024-01-16T01:09:13;20.20;72.50
11426;DHT22;5769;47.998;7.788;2024-01-16T01:11:40;20.20;71.90
11426;DHT22;5769;47.998;7.788;2024-01-16T01:14:07;20.20;71.50
11426;DHT22;5769;47.998;7.788;2024-01-16T01:16:35;20.10;71.10
11426;DHT22;5769;47.998;7.788;2024-01-16T01:19:03;20.20;71.10
11426;DHT22;5769;47.998;7.788;2024-01-16T01:21:30;20.20;71.00
11426;DHT22;5769;47.998;7.788;2024-01-16T01:24:00;20.10;71.00
11426;DHT22;5769;47.998;7.788;2024-01-16T01:26:29;20.10;71.00
11426;DHT22;5769;47.998;7.788;2024-01-16T01:28:56;20.10;71.00
11426;DHT22;5769;47.998;7.788;2024-01-16T01:31:23;20.00;70.90
11426;DHT22;5769;47.998;7.788;2024-01-16T01:33:50;20.00;70.90
11426;DHT22;5769;47.998;7.788;2024-01-16T01:36:16;20.00;71.00
11426;DHT22;5769;47.998;7.788;2024-01-16T01:38:43;20.00;70.90
11426;DHT22;5769;47.998;7.788;2024-01-16T01:41:11;20.00;71.00
11426;DHT22;5769;47.998;7.788;2024-01-16T01:43:38;20.00;71.20
11426;DHT22;5769;47.998;7.788;2024-01-16T01:46:14;19.90;71.20
11426;DHT22;5769;47.998;7.788;2024-01-16T01:48:43;19.90;71.30
11426;DHT22;5769;47.998;7.788;2024-01-16T01:51:12;19.90;71.30
11426;DHT22;5769;47.998;7.788;2024-01-16T01:53:40;19.90;71.20
11426;DHT22;5769;47.998;7.788;2024-01-16T01:56:11;19.90;71.10
11426;DHT22;5769;47.998;7.788;2024-01-16T01:58:41;19.80;71.20
11426;DHT22;5769;47.998;7.788;2024-01-16T02:01:10;19.90;71.20
11426;DHT22;5769;47.998;7.788;2024-01-16T02:03:41;19.80;71.30
11426;DHT22;5769;47.998;7.788;2024-01-16T02:06:10;19.80;71.30
11426;DHT22;5769;47.998;7.788;2024-01-16T02:08:37;19.80;71.20
11426;DHT22;5769;47.998;7.788;2024-01-16T02:11:04;19.90;71.10
11426;DHT22;5769;47.998;7.788;2024-01-16T02:13:32;19.80;71.00
11426;DHT22;5769;47.998;7.788;2024-01-16T02:15:59;19.80;71.00
11426;DHT22;5769;47.998;7.788;2024-01-16T02:18:26;19.80;71.00
11426;DHT22;5769;47.998;7.788;2024-01-16T02:20:57;19.80;71.00
11426;DHT22;5769;47.998;7.788;2024-01-16T02:23:27;19.80;71.10
11426;DHT22;5769;47.998;7.788;2024-01-16T02:25:54;19.80;71.10
11426;DHT22;5769;47.998;7.788;2024-01-16T02:28:21;19.80;71.10
11426;DHT22;5769;47.998;7.788;2024-01-16T02:30:48;19.70;71.00
11426;DHT22;5769;47.998;7.788;2024-01-16T02:33:15;19.70;71.20
11426;DHT22;5769;47.998;7.788;2024-01-16T02:35:41;19.70;71.20
11426;DHT22;5769;47.998;7.788;2024-01-16T02:38:08;19.70;71.20
11426;DHT22;5769;47.998;7.788;2024-01-16T02:40:36;19.70;71.20
11426;DHT22;5769;47.998;7.788;2024-01-16T02:43:03;19.70;71.20
11426;DHT22;5769;47.998;7.788;2024-01-16T02:45:30;19.70;71.20
11426;DHT22;5769;47.998;7.788;2024-01-16T02:47:56;19.70;71.20
11426;DHT22;5769;47.998;7.788;2024-01-16T02:50:23;19.70;71.20
11426;DHT22;5769;47.998;7.788;2024-01-16T02:52:50;19.70;71.10
11426;DHT22;5769;47.998;7.788;2024-01-16T02:55:17;19.70;71.20
11426;DHT22;5769;47.998;7.788;2024-01-16T02:57:45;19.70;71.20
11426;DHT22;5769;47.998;7.788;2024-01-16T03:00:12;19.70;71.20
11426;DHT22;5769;47.998;7.788;2024-01-16T03:02:39;19.70;71.20
11426;DHT22;5769;47.998;7.788;2024-01-16T03:05:06;19.60;71.10
11426;DHT22;5769;47.998;7.788;2024-01-16T03:07:34;19.60;71.00
11426;DHT22;5769;47.998;7.788;2024-01-16T03:10:01;19.60;71.70
11426;DHT22;5769;47.998;7.788;2024-01-16T03:12:27;19.60;71.10
11426;DHT22;5769;47.998;7.788;2024-01-16T03:14:55;19.60;71.10
11426;DHT22;5769;47.998;7.788;2024-01-16T03:17:22;19.60;71.10
11426;DHT22;5769;47.998;7.788;2024-01-16T03:19:49;19.60;71.10
11426;DHT22;5769;47.998;7.788;2024-01-16T03:22:16;19.60;71.00
11426;DHT22;5769;47.998;7.788;2024-01-16T03:24:43;19.60;71.00
11426;DHT22;5769;47.998;7.788;2024-01-16T03:27:10;19.60;71.00
11426;DHT22;5769;47.998;7.788;2024-01-16T03:29:37;19.60;71.00
11426;DHT22;5769;47.998;7.788;2024-01-16T03:32:08;19.60;71.10
11426;DHT22;5769;47.998;7.788;2024-01-16T03:34:36;19.60;71.20
11426;DHT22;5769;47.998;7.788;2024-01-16T03:37:02;19.50;71.10
11426;DHT22;5769;47.998;7.788;2024-01-16T03:39:30;19.50;71.00
11426;DHT22;5769;47.998;7.788;2024-01-16T03:41:56;19.60;71.00
11426;DHT22;5769;47.998;7.788;2024-01-16T03:44:27;19.60;71.00
11426;DHT22;5769;47.998;7.788;2024-01-16T03:46:54;19.60;70.90
11426;DHT22;5769;47.998;7.788;2024-01-16T03:49:22;19.60;71.10
11426;DHT22;5769;47.998;7.788;2024-01-16T03:51:50;19.60;71.00
11426;DHT22;5769;47.998;7.788;2024-01-16T03:54:19;19.50;71.00
11426;DHT22;5769;47.998;7.788;2024-01-16T03:56:46;19.50;71.00
11426;DHT22;5769;47.998;7.788;2024-01-16T03:59:13;19.50;71.10
11426;DHT22;5769;47.998;7.788;2024-01-16T04:01:40;19.50;71.00
11426;DHT22;5769;47.998;7.788;2024-01-16T04:04:08;19.60;71.00
11426;DHT22;5769;47.998;7.788;2024-01-16T04:06:37;19.50;71.00
11426;DHT22;5769;47.998;7.788;2024-01-16T04:09:06;19.50;71.00
11426;DHT22;5769;47.998;7.788;2024-01-16T04:11:35;19.50;71.00
11426;DHT22;5769;47.998;7.788;2024-01-16T04:14:02;19.50;71.20
11426;DHT22;5769;47.998;7.788;2024-01-16T04:16:29;19.50;71.10
11426;DHT22;5769;47.998;7.788;2024-01-16T04:18:55;19.40;71.00
11426;DHT22;5769;47.998;7.788;2024-01-16T04:21:22;19.50;71.20
11426;DHT22;5769;47.998;7.788;2024-01-16T04:23:50;19.50;71.10
11426;DHT22;5769;47.998;7.788;2024-01-16T04:26:20;19.50;71.00
11426;DHT22;5769;47.998;7.788;2024-01-16T04:28:47;19.40;71.00
11426;DHT22;5769;47.998;7.788;2024-01-16T04:31:15;19.40;70.90
11426;DHT22;5769;47.998;7.788;2024-01-16T04:33:43;19.50;71.20
11426;DHT22;5769;47.998;7.788;2024-01-16T04:36:09;19.40;70.90
11426;DHT22;5769;47.998;7.788;2024-01-16T04:38:36;19.40;71.00
11426;DHT22;5769;47.998;7.788;2024-01-16T04:41:06;19.40;71.00
11426;DHT22;5769;47.998;7.788;2024-01-16T04:43:33;19.50;71.00
11426;DHT22;5769;47.998;7.788;2024-01-16T04:46:03;19.40;70.80
11426;DHT22;5769;47.998;7.788;2024-01-16T04:48:30;19.40;70.90
11426;DHT22;5769;47.998;7.788;2024-01-16T04:50:59;19.40;70.80
11426;DHT22;5769;47.998;7.788;2024-01-16T04:53:27;19.40;70.80
11426;DHT22;5769;47.998;7.788;2024-01-16T04:55:55;19.40;70.90
11426;DHT22;5769;47.998;7.788;2024-01-16T04:58:23;19.40;71.00
11426;DHT22;5769;47.998;7.788;2024-01-16T05:00:50;19.40;70.90
11426;DHT22;5769;47.998;7.788;2024-01-16T05:03:16;19.40;70.80
11426;DHT22;5769;47.998;7.788;2024-01-16T05:05:43;19.40;70.80
11426;DHT22;5769;47.998;7.788;2024-01-16T05:08:12;19.40;70.90
11426;DHT22;5769;47.998;7.788;2024-01-16T05:10:38;19.40;70.90
11426;DHT22;5769;47.998;7.788;2024-01-16T05:13:05;19.40;70.90
11426;DHT22;5769;47.998;7.788;2024-01-16T05:15:33;19.40;70.90
11426;DHT22;5769;47.998;7.788;2024-01-16T05:18:00;19.40;70.90
11426;DHT22;5769;47.998;7.788;2024-01-16T05:20:29;19.40;70.60
11426;DHT22;5769;47.998;7.788;2024-01-16T05:22:56;19.30;70.50
11426;DHT22;5769;47.998;7.788;2024-01-16T05:25:22;19.40;70.70
11426;DHT22;5769;47.998;7.788;2024-01-16T05:27:50;19.40;70.70
11426;DHT22;5769;47.998;7.788;2024-01-16T05:30:18;19.30;70.50
11426;DHT22;5769;47.998;7.788;2024-01-16T05:32:46;19.30;70.70
11426;DHT22;5769;47.998;7.788;2024-01-16T05:35:13;19.30;70.60
11426;DHT22;5769;47.998;7.788;2024-01-16T05:37:40;19.40;70.70
11426;DHT22;5769;47.998;7.788;2024-01-16T05:40:07;19.40;70.70
11426;DHT22;5769;47.998;7.788;2024-01-16T05:42:35;19.40;70.70
11426;DHT22;5769;47.998;7.788;2024-01-16T05:45:02;19.30;70.70
11426;DHT22;5769;47.998;7.788;2024-01-16T05:47:29;19.30;70.70
11426;DHT22;5769;47.998;7.788;2024-01-16T05:49:57;19.30;70.60
11426;DHT22;5769;47.998;7.788;2024-01-16T05:52:24;19.40;70.70
11426;DHT22;5769;47.998;7.788;2024-01-16T05:54:51;19.30;70.90
11426;DHT22;5769;47.998;7.788;2024-01-16T05:57:17;19.30;70.90
11426;DHT22;5769;47.998;7.788;2024-01-16T05:59:44;19.30;70.80
11426;DHT22;5769;47.998;7.788;2024-01-16T06:02:11;19.30;70.70
11426;DHT22;5769;47.998;7.788;2024-01-16T06:04:38;19.30;70.70
11426;DHT22;5769;47.998;7.788;2024-01-16T06:07:06;19.30;70.70
11426;DHT22;5769;47.998;7.788;2024-01-16T06:09:33;19.30;70.70
11426;DHT22;5769;47.998;7.788;2024-01-16T06:11:59;19.30;70.60
11426;DHT22;5769;47.998;7.788;2024-01-16T06:14:26;19.30;70.70
11426;DHT22;5769;47.998;7.788;2024-01-16T06:16:53;19.30;70.60
11426;DHT22;5769;47.998;7.788;2024-01-16T06:19:20;19.30;70.40
11426;DHT22;5769;47.998;7.788;2024-01-16T06:21:46;19.30;70.40
11426;DHT22;5769;47.998;7.788;2024-01-16T06:24:14;19.30;70.40
11426;DHT22;5769;47.998;7.788;2024-01-16T06:26:41;19.30;70.40
11426;DHT22;5769;47.998;7.788;2024-01-16T06:29:08;19.30;70.30
11426;DHT22;5769;47.998;7.788;2024-01-16T06:31:35;19.30;71.00
11426;DHT22;5769;47.998;7.788;2024-01-16T06:34:02;19.30;70.40
11426;DHT22;5769;47.998;7.788;2024-01-16T06:36:29;19.30;70.30
11426;DHT22;5769;47.998;7.788;2024-01-16T06:38:55;19.20;70.20
11426;DHT22;5769;47.998;7.788;2024-01-16T06:41:23;19.30;70.10
11426;DHT22;5769;47.998;7.788;2024-01-16T06:43:50;19.30;70.20
11426;DHT22;5769;47.998;7.788;2024-01-16T06:46:17;19.20;70.10
11426;DHT22;5769;47.998;7.788;2024-01-16T06:48:44;19.30;70.20
11426;DHT22;5769;47.998;7.788;2024-01-16T06:51:10;19.20;70.10
11426;DHT22;5769;47.998;7.788;2024-01-16T06:53:39;19.30;70.00
11426;DHT22;5769;47.998;7.788;2024-01-16T06:56:06;19.30;70.00
11426;DHT22;5769;47.998;7.788;2024-01-16T06:58:34;19.30;70.00
11426;DHT22;5769;47.998;7.788;2024-01-16T07:01:04;19.20;69.80
11426;DHT22;5769;47.998;7.788;2024-01-16T07:03:30;19.30;70.00
11426;DHT22;5769;47.998;7.788;2024-01-16T07:05:58;19.30;70.20
11426;DHT22;5769;47.998;7.788;2024-01-16T07:08:24;19.20;70.10
11426;DHT22;5769;47.998;7.788;2024-01-16T07:10:51;19.30;70.00
11426;DHT22;5769;47.998;7.788;2024-01-16T07:13:19;19.20;69.90
11426;DHT22;5769;47.998;7.788;2024-01-16T07:15:47;19.20;70.00
11426;DHT22;5769;47.998;7.788;2024-01-16T07:18:14;19.20;69.90
11426;DHT22;5769;47.998;7.788;2024-01-16T07:20:40;19.30;70.20
11426;DHT22;5769;47.998;7.788;2024-01-16T07:23:07;19.20;69.90
11426;DHT22;5769;47.998;7.788;2024-01-16T07:25:34;19.20;69.90
11426;DHT22;5769;47.998;7.788;2024-01-16T07:28:01;19.20;69.90
11426;DHT22;5769;47.998;7.788;2024-01-16T07:30:28;19.20;70.10
11426;DHT22;5769;47.998;7.788;2024-01-16T07:32:56;19.20;70.00
11426;DHT22;5769;47.998;7.788;2024-01-16T07:35:22;19.20;69.90
11426;DHT22;5769;47.998;7.788;2024-01-16T07:37:49;19.20;69.80
11426;DHT22;5769;47.998;7.788;2024-01-16T07:40:16;19.20;69.90
11426;DHT22;5769;47.998;7.788;2024-01-16T07:42:43;19.20;70.00
11426;DHT22;5769;47.998;7.788;2024-01-16T07:45:10;19.10;69.90
11426;DHT22;5769;47.998;7.788;2024-01-16T07:47:37;19.20;70.00
11426;DHT22;5769;47.998;7.788;2024-01-16T07:50:06;19.20;70.00
11426;DHT22;5769;47.998;7.788;2024-01-16T07:52:33;19.20;70.00
11426;DHT22;5769;47.998;7.788;2024-01-16T07:55:01;19.20;70.10
11426;DHT22;5769;47.998;7.788;2024-01-16T07:57:28;19.20;70.10
11426;DHT22;5769;47.998;7.788;2024-01-16T07:59:56;19.20;70.10
11426;DHT22;5769;47.998;7.788;2024-01-16T08:02:30;19.20;70.00
11426;DHT22;5769;47.998;7.788;2024-01-16T08:04:58;19.20;70.10
11426;DHT22;5769;47.998;7.788;2024-01-16T08:07:26;19.10;70.20
11426;DHT22;5769;47.998;7.788;2024-01-16T08:09:54;19.20;70.30
11426;DHT22;5769;47.998;7.788;2024-01-16T08:12:21;19.20;70.40
11426;DHT22;5769;47.998;7.788;2024-01-16T08:14:49;19.20;70.20
11426;DHT22;5769;47.998;7.788;2024-01-16T08:17:15;19.10;70.10
11426;DHT22;5769;47.998;7.788;2024-01-16T08:19:43;19.20;70.20
11426;DHT22;5769;47.998;7.788;2024-01-16T08:22:09;19.20;70.30
11426;DHT22;5769;47.998;7.788;2024-01-16T08:24:37;19.20;70.20
11426;DHT22;5769;47.998;7.788;2024-01-16T08:27:05;19.20;70.20
11426;DHT22;5769;47.998;7.788;2024-01-16T08:29:31;19.20;70.30
11426;DHT22;5769;47.998;7.788;2024-01-16T08:31:58;19.20;70.40
11426;DHT22;5769;47.998;7.788;2024-01-16T08:34:25;19.10;70.30
11426;DHT22;5769;47.998;7.788;2024-01-16T08:36:52;19.10;70.30
11426;DHT22;5769;47.998;7.788;2024-01-16T08:39:22;19.20;70.40
11426;DHT22;5769;47.998;7.788;2024-01-16T08:41:52;19.20;70.40
11426;DHT22;5769;47.998;7.788;2024-01-16T08:44:20;19.10;70.30
11426;DHT22;5769;47.998;7.788;2024-01-16T08:46:49;19.20;70.50
11426;DHT22;5769;47.998;7.788;2024-01-16T08:49:16;19.20;70.50
11426;DHT22;5769;47.998;7.788;2024-01-16T08:51:43;19.10;70.30
11426;DHT22;5769;47.998;7.788;2024-01-16T08:54:09;19.20;70.40
11426;DHT22;5769;47.998;7.788;2024-01-16T08:56:36;19.20;70.20
11426;DHT22;5769;47.998;7.788;2024-01-16T08:59:06;19.10;70.30
11426;DHT22;5769;47.998;7.788;2024-01-16T09:01:37;19.10;70.20
11426;DHT22;5769;47.998;7.788;2024-01-16T09:04:04;19.10;70.00
11426;DHT22;5769;47.998;7.788;2024-01-16T09:06:32;19.10;70.00
11426;DHT22;5769;47.998;7.788;2024-01-16T09:08:58;19.10;70.00
11426;DHT22;5769;47.998;7.788;2024-01-16T09:11:25;19.10;70.00
11426;DHT22;5769;47.998;7.788;2024-01-16T09:13:52;19.20;70.00
11426;DHT22;5769;47.998;7.788;2024-01-16T09:16:20;19.10;69.90
11426;DHT22;5769;47.998;7.788;2024-01-16T09:18:47;19.20;70.00
11426;DHT22;5769;47.998;7.788;2024-01-16T09:21:14;19.10;70.00
11426;DHT22;5769;47.998;7.788;2024-01-16T09:23:41;19.10;69.90
11426;DHT22;5769;47.998;7.788;2024-01-16T09:26:09;19.20;70.00
11426;DHT22;5769;47.998;7.788;2024-01-16T09:28:36;19.10;70.60
11426;DHT22;5769;47.998;7.788;2024-01-16T09:31:06;19.20;70.10
11426;DHT22;5769;47.998;7.788;2024-01-16T09:33:34;19.10;70.00
11426;DHT22;5769;47.998;7.788;2024-01-16T09:36:01;19.10;70.00
11426;DHT22;5769;47.998;7.788;2024-01-16T09:38:28;19.10;70.30
11426;DHT22;5769;47.998;7.788;2024-01-16T09:40:56;19.10;70.00
11426;DHT22;5769;47.998;7.788;2024-01-16T09:43:27;19.10;70.00
11426;DHT22;5769;47.998;7.788;2024-01-16T09:45:54;19.00;69.70
11426;DHT22;5769;47.998;7.788;2024-01-16T09:48:22;19.10;69.90
11426;DHT22;5769;47.998;7.788;2024-01-16T09:50:50;19.00;69.90
11426;DHT22;5769;47.998;7.788;2024-01-16T09:53:17;19.10;69.90
11426;DHT22;5769;47.998;7.788;2024-01-16T09:55:44;19.10;70.00
11426;DHT22;5769;47.998;7.788;2024-01-16T09:58:12;19.10;70.10
11426;DHT22;5769;47.998;7.788;2024-01-16T10:00:42;19.10;70.00
11426;DHT22;5769;47.998;7.788;2024-01-16T10:03:14;19.10;70.00
11426;DHT22;5769;47.998;7.788;2024-01-16T10:05:43;19.10;69.90
11426;DHT22;5769;47.998;7.788;2024-01-16T10:08:14;19.10;70.00
11426;DHT22;5769;47.998;7.788;2024-01-16T10:10:46;19.10;70.00
11426;DHT22;5769;47.998;7.788;2024-01-16T10:13:14;19.10;69.90
11426;DHT22;5769;47.998;7.788;2024-01-16T10:15:41;19.10;70.00
11426;DHT22;5769;47.998;7.788;2024-01-16T10:18:21;19.00;69.90
11426;DHT22;5769;47.998;7.788;2024-01-16T10:20:49;19.00;70.00
11426;DHT22;5769;47.998;7.788;2024-01-16T10:23:24;19.10;70.00
11426;DHT22;5769;47.998;7.788;2024-01-16T10:26:05;19.10;70.00
11426;DHT22;5769;47.998;7.788;2024-01-16T10:28:32;19.10;70.00
11426;DHT22;5769;47.998;7.788;2024-01-16T10:31:02;19.00;70.10
11426;DHT22;5769;47.998;7.788;2024-01-16T10:33:29;19.00;69.70
11426;DHT22;5769;47.998;7.788;2024-01-16T10:36:11;19.10;69.90
11426;DHT22;5769;47.998;7.788;2024-01-16T10:38:41;19.10;69.70
11426;DHT22;5769;47.998;7.788;2024-01-16T10:41:10;19.10;69.60
11426;DHT22;5769;47.998;7.788;2024-01-16T10:43:38;19.10;69.80
11426;DHT22;5769;47.998;7.788;2024-01-16T10:46:10;19.00;69.60
11426;DHT22;5769;47.998;7.788;2024-01-16T10:48:42;19.10;69.60
11426;DHT22;5769;47.998;7.788;2024-01-16T10:51:13;19.10;69.70
11426;DHT22;5769;47.998;7.788;2024-01-16T10:53:44;19.10;70.00
11426;DHT22;5769;47.998;7.788;2024-01-16T10:56:12;19.10;70.00
11426;DHT22;5769;47.998;7.788;2024-01-16T10:58:41;19.00;69.90
11426;DHT22;5769;47.998;7.788;2024-01-16T11:01:11;19.10;69.80
11426;DHT22;5769;47.998;7.788;2024-01-16T11:03:40;19.00;69.90
11426;DHT22;5769;47.998;7.788;2024-01-16T11:06:10;19.10;70.20
11426;DHT22;5769;47.998;7.788;2024-01-16T11:08:39;19.00;70.00
11426;DHT22;5769;47.998;7.788;2024-01-16T11:11:08;19.10;70.00
11426;DHT22;5769;47.998;7.788;2024-01-16T11:13:46;19.10;69.90
11426;DHT22;5769;47.998;7.788;2024-01-16T11:16:14;19.10;70.10
11426;DHT22;5769;47.998;7.788;2024-01-16T11:18:41;19.00;69.90
11426;DHT22;5769;47.998;7.788;2024-01-16T11:21:10;19.00;70.00
11426;DHT22;5769;47.998;7.788;2024-01-16T11:23:38;19.00;69.80
11426;DHT22;5769;47.998;7.788;2024-01-16T11:26:40;19.00;69.90
11426;DHT22;5769;47.998;7.788;2024-01-16T11:29:35;19.00;69.80
11426;DHT22;5769;47.998;7.788;2024-01-16T11:32:03;19.00;69.90
11426;DHT22;5769;47.998;7.788;2024-01-16T11:34:54;19.10;70.00
11426;DHT22;5769;47.998;7.788;2024-01-16T11:37:27;19.10;69.90
11426;DHT22;5769;47.998;7.788;2024-01-16T11:40:24;19.00;69.90
11426;DHT22;5769;47.998;7.788;2024-01-16T11:43:35;19.00;69.90
11426;DHT22;5769;47.998;7.788;2024-01-16T11:46:04;19.10;70.70
11426;DHT22;5769;47.998;7.788;2024-01-16T11:48:31;19.10;69.90
11426;DHT22;5769;47.998;7.788;2024-01-16T11:50:57;19.00;69.80
11426;DHT22;5769;47.998;7.788;2024-01-16T11:53:40;19.00;69.80
11426;DHT22;5769;47.998;7.788;2024-01-16T11:59:42;19.00;69.80
11426;DHT22;5769;47.998;7.788;2024-01-16T12:02:20;19.00;69.70
11426;DHT22;5769;47.998;7.788;2024-01-16T12:04:52;19.00;69.70
11426;DHT22;5769;47.998;7.788;2024-01-16T12:07:42;19.00;69.80
11426;DHT22;5769;47.998;7.788;2024-01-16T12:10:09;18.90;69.80
11426;DHT22;5769;47.998;7.788;2024-01-16T12:12:36;19.00;69.90
11426;DHT22;5769;47.998;7.788;2024-01-16T12:15:05;19.00;69.90
11426;DHT22;5769;47.998;7.788;2024-01-16T12:17:32;19.00;70.10
11426;DHT22;5769;47.998;7.788;2024-01-16T12:20:15;19.00;70.10
11426;DHT22;5769;47.998;7.788;2024-01-16T12:22:41;19.00;69.80
11426;DHT22;5769;47.998;7.788;2024-01-16T12:25:13;19.10;69.90
11426;DHT22;5769;47.998;7.788;2024-01-16T12:27:45;19.10;70.00
11426;DHT22;5769;47.998;7.788;2024-01-16T12:30:19;19.10;70.70
11426;DHT22;5769;47.998;7.788;2024-01-16T12:32:47;19.10;69.90
11426;DHT22;5769;47.998;7.788;2024-01-16T12:35:20;19.10;69.80
11426;DHT22;5769;47.998;7.788;2024-01-16T12:37:58;19.10;69.80
11426;DHT22;5769;47.998;7.788;2024-01-16T12:40:25;19.20;69.90
11426;DHT22;5769;47.998;7.788;2024-01-16T12:42:52;19.20;69.90
11426;DHT22;5769;47.998;7.788;2024-01-16T12:45:21;19.10;69.90
11426;DHT22;5769;47.998;7.788;2024-01-16T12:47:51;19.20;69.90
11426;DHT22;5769;47.998;7.788;2024-01-16T12:50:22;19.20;70.00
11426;DHT22;5769;47.998;7.788;2024-01-16T12:52:49;19.10;69.90
11426;DHT22;5769;47.998;7.788;2024-01-16T12:55:17;19.20;70.00
11426;DHT22;5769;47.998;7.788;2024-01-16T12:57:47;19.20;69.80
11426;DHT22;5769;47.998;7.788;2024-01-16T13:00:23;19.20;70.00
11426;DHT22;5769;47.998;7.788;2024-01-16T13:02:54;19.30;70.20
11426;DHT22;5769;47.998;7.788;2024-01-16T13:05:24;19.30;70.00
11426;DHT22;5769;47.998;7.788;2024-01-16T13:08:01;19.30;70.00
11426;DHT22;5769;47.998;7.788;2024-01-16T13:10:29;19.30;70.00
11426;DHT22;5769;47.998;7.788;2024-01-16T13:13:14;19.40;70.60
11426;DHT22;5769;47.998;7.788;2024-01-16T13:15:43;19.40;70.40
11426;DHT22;5769;47.998;7.788;2024-01-16T13:18:20;19.40;70.40
11426;DHT22;5769;47.998;7.788;2024-01-16T13:20:50;19.40;70.60
11426;DHT22;5769;47.998;7.788;2024-01-16T13:23:17;19.40;70.60
11426;DHT22;5769;47.998;7.788;2024-01-16T13:25:46;19.40;70.70
11426;DHT22;5769;47.998;7.788;2024-01-16T13:28:13;19.40;70.70
11426;DHT22;5769;47.998;7.788;2024-01-16T13:30:41;19.40;70.90
11426;DHT22;5769;47.998;7.788;2024-01-16T13:33:09;19.40;71.00
11426;DHT22;5769;47.998;7.788;2024-01-16T13:35:39;19.40;71.20
11426;DHT22;5769;47.998;7.788;2024-01-16T13:38:11;19.40;71.30
11426;DHT22;5769;47.998;7.788;2024-01-16T13:40:38;19.40;71.30
11426;DHT22;5769;47.998;7.788;2024-01-16T13:43:05;19.40;71.40
11426;DHT22;5769;47.998;7.788;2024-01-16T13:45:33;19.40;71.40
11426;DHT22;5769;47.998;7.788;2024-01-16T13:48:02;19.40;71.70
11426;DHT22;5769;47.998;7.788;2024-01-16T13:50:30;19.40;71.50
11426;DHT22;5769;47.998;7.788;2024-01-16T13:52:59;19.50;71.40
11426;DHT22;5769;47.998;7.788;2024-01-16T13:55:26;19.50;71.50
11426;DHT22;5769;47.998;7.788;2024-01-16T13:57:52;19.40;71.60
11426;DHT22;5769;47.998;7.788;2024-01-16T14:00:19;19.50;71.60
11426;DHT22;5769;47.998;7.788;2024-01-16T14:02:47;19.40;71.40
11426;DHT22;5769;47.998;7.788;2024-01-16T14:05:16;19.50;71.50
11426;DHT22;5769;47.998;7.788;2024-01-16T14:07:45;19.50;71.70
11426;DHT22;5769;47.998;7.788;2024-01-16T14:10:14;19.50;71.80
11426;DHT22;5769;47.998;7.788;2024-01-16T14:12:41;19.50;71.80
11426;DHT22;5769;47.998;7.788;2024-01-16T14:15:10;19.50;71.80
11426;DHT22;5769;47.998;7.788;2024-01-16T14:17:45;19.50;71.80
11426;DHT22;5769;47.998;7.788;2024-01-16T14:20:15;19.50;71.60
11426;DHT22;5769;47.998;7.788;2024-01-16T14:22:44;19.50;71.70
11426;DHT22;5769;47.998;7.788;2024-01-16T14:25:12;19.50;71.90
11426;DHT22;5769;47.998;7.788;2024-01-16T14:27:41;19.50;72.00
11426;DHT22;5769;47.998;7.788;2024-01-16T14:30:09;19.50;72.00
11426;DHT22;5769;47.998;7.788;2024-01-16T14:32:36;19.60;72.30
11426;DHT22;5769;47.998;7.788;2024-01-16T14:35:05;19.50;72.20
11426;DHT22;5769;47.998;7.788;2024-01-16T14:37:36;19.50;72.40
11426;DHT22;5769;47.998;7.788;2024-01-16T14:40:06;19.60;72.40
11426;DHT22;5769;47.998;7.788;2024-01-16T14:42:41;19.50;72.30
11426;DHT22;5769;47.998;7.788;2024-01-16T14:45:10;19.50;72.30
11426;DHT22;5769;47.998;7.788;2024-01-16T14:47:37;19.50;72.20
11426;DHT22;5769;47.998;7.788;2024-01-16T14:50:05;19.60;72.40
11426;DHT22;5769;47.998;7.788;2024-01-16T14:52:34;19.60;72.60
11426;DHT22;5769;47.998;7.788;2024-01-16T14:55:02;19.60;72.90
11426;DHT22;5769;47.998;7.788;2024-01-16T14:57:30;19.60;72.90
11426;DHT22;5769;47.998;7.788;2024-01-16T14:59:57;19.60;73.00
11426;DHT22;5769;47.998;7.788;2024-01-16T15:02:26;19.60;73.00
11426;DHT22;5769;47.998;7.788;2024-01-16T15:04:55;19.70;73.10
11426;DHT22;5769;47.998;7.788;2024-01-16T15:07:23;19.60;73.00
11426;DHT22;5769;47.998;7.788;2024-01-16T15:09:53;19.70;72.80
11426;DHT22;5769;47.998;7.788;2024-01-16T15:12:20;19.70;72.90
11426;DHT22;5769;47.998;7.788;2024-01-16T15:14:47;19.70;72.60
11426;DHT22;5769;47.998;7.788;2024-01-16T15:17:14;19.70;72.70
11426;DHT22;5769;47.998;7.788;2024-01-16T15:19:41;19.60;72.40
11426;DHT22;5769;47.998;7.788;2024-01-16T15:22:07;19.60;72.40
11426;DHT22;5769;47.998;7.788;2024-01-16T15:24:34;19.70;72.40
11426;DHT22;5769;47.998;7.788;2024-01-16T15:27:02;19.70;72.50
11426;DHT22;5769;47.998;7.788;2024-01-16T15:29:29;19.70;72.30
11426;DHT22;5769;47.998;7.788;2024-01-16T15:31:56;19.70;72.20
11426;DHT22;5769;47.998;7.788;2024-01-16T15:34:23;19.70;72.20
11426;DHT22;5769;47.998;7.788;2024-01-16T15:36:50;19.70;72.10
11426;DHT22;5769;47.998;7.788;2024-01-16T15:39:19;19.70;72.10
11426;DHT22;5769;47.998;7.788;2024-01-16T15:41:47;19.60;71.80
11426;DHT22;5769;47.998;7.788;2024-01-16T15:44:15;19.70;72.10
11426;DHT22;5769;47.998;7.788;2024-01-16T15:46:58;19.70;72.10
11426;DHT22;5769;47.998;7.788;2024-01-16T15:49:27;19.70;71.90
11426;DHT22;5769;47.998;7.788;2024-01-16T15:51:54;19.70;71.20
11426;DHT22;5769;47.998;7.788;2024-01-16T15:54:22;19.70;69.40
11426;DHT22;5769;47.998;7.788;2024-01-16T15:56:50;19.60;68.90